createdAt,value
2018-10-02T00:02:02.231Z,2.12
2018-10-02T00:04:37.972Z,1.90
2018-10-02T00:07:13.206Z,2.37
2018-10-02T00:09:48.854Z,2.00
2018-10-02T00:12:29.454Z,1.90
2018-10-02T00:15:04.986Z,2.05
2018-10-02T00:17:40.368Z,2.08
2018-10-02T00:20:16.070Z,2.47
2018-10-02T00:22:51.616Z,2.02
2018-10-02T00:25:27.105Z,1.82
2018-10-02T00:28:02.417Z,2.00
2018-10-02T00:30:38.353Z,2.17
2018-10-02T00:33:13.648Z,2.47
2018-10-02T00:35:49.281Z,1.77
2018-10-02T00:38:24.845Z,1.90
2018-10-02T00:41:00.340Z,2.08
2018-10-02T00:43:35.873Z,2.25
2018-10-02T00:46:11.369Z,1.98
2018-10-02T00:48:46.773Z,1.80
2018-10-02T00:51:22.184Z,1.85
2018-10-02T00:53:57.749Z,2.47
2018-10-02T00:56:33.425Z,2.00
2018-10-02T00:59:08.848Z,2.40
2018-10-02T01:01:44.445Z,2.80
2018-10-02T01:04:19.952Z,1.92
2018-10-02T01:06:55.375Z,1.92
2018-10-02T01:09:30.967Z,2.65
2018-10-02T01:12:06.466Z,1.77
2018-10-02T01:14:41.922Z,2.10
2018-10-02T01:17:17.529Z,2.10
2018-10-02T01:19:52.970Z,2.30
2018-10-02T01:22:28.337Z,2.62
2018-10-02T01:25:03.919Z,2.30
2018-10-02T01:27:39.523Z,2.10
2018-10-02T01:30:15.169Z,2.05
2018-10-02T01:32:50.776Z,1.85
2018-10-02T01:35:26.774Z,1.80
2018-10-02T01:38:02.308Z,2.05
2018-10-02T01:40:37.646Z,1.80
2018-10-02T01:43:13.180Z,2.52
2018-10-02T01:45:48.754Z,1.82
2018-10-02T01:48:24.274Z,2.08
2018-10-02T01:51:00.255Z,2.02
2018-10-02T01:53:36.418Z,2.22
2018-10-02T01:56:12.012Z,2.10
2018-10-02T01:58:47.499Z,2.30
2018-10-02T02:01:23.166Z,1.57
2018-10-02T02:03:58.705Z,2.10
2018-10-02T02:06:34.253Z,2.00
2018-10-02T02:09:09.940Z,1.90
2018-10-02T02:11:45.311Z,2.15
2018-10-02T02:14:20.733Z,2.05
2018-10-02T02:16:56.039Z,2.00
2018-10-02T02:19:31.621Z,2.08
2018-10-02T02:22:07.076Z,2.30
2018-10-02T02:24:42.716Z,2.10
2018-10-02T02:27:18.232Z,2.50
2018-10-02T02:29:53.732Z,2.83
2018-10-02T02:32:29.106Z,2.25
2018-10-02T02:35:04.680Z,2.17
2018-10-02T02:37:40.057Z,1.90
2018-10-02T02:40:15.546Z,2.25
2018-10-02T02:42:51.184Z,2.45
2018-10-02T02:45:26.809Z,2.27
2018-10-02T02:48:07.550Z,2.40
2018-10-02T02:50:46.758Z,2.02
2018-10-02T02:53:22.737Z,2.80
2018-10-02T02:55:58.453Z,2.47
2018-10-02T02:58:34.006Z,2.17
2018-10-02T03:01:09.576Z,2.10
2018-10-02T03:03:44.994Z,2.22
2018-10-02T03:06:20.642Z,2.37
2018-10-02T03:08:56.410Z,2.52
2018-10-02T03:11:31.811Z,2.80
2018-10-02T03:14:07.334Z,2.25
2018-10-02T03:16:42.955Z,2.55
2018-10-02T03:19:18.369Z,2.52
2018-10-02T03:21:53.882Z,2.05
2018-10-02T03:24:29.284Z,2.67
2018-10-02T03:27:04.712Z,3.72
2018-10-02T03:29:40.102Z,2.70
2018-10-02T03:32:15.612Z,2.42
2018-10-02T03:34:50.977Z,2.60
2018-10-02T03:37:26.751Z,2.50
2018-10-02T03:40:02.164Z,2.27
2018-10-02T03:42:37.835Z,3.10
2018-10-02T03:45:13.136Z,2.60
2018-10-02T03:47:48.694Z,3.00
2018-10-02T03:50:24.135Z,2.58
2018-10-02T03:52:59.511Z,3.33
2018-10-02T03:55:34.982Z,2.60
2018-10-02T03:58:10.398Z,3.10
2018-10-02T04:00:45.892Z,3.47
2018-10-02T04:03:21.656Z,3.08
2018-10-02T04:05:57.161Z,2.87
2018-10-02T04:08:32.721Z,3.33
2018-10-02T04:11:08.006Z,3.22
2018-10-02T04:13:43.441Z,3.17
2018-10-02T04:16:18.921Z,3.00
2018-10-02T04:18:54.529Z,2.45
2018-10-02T04:21:37.101Z,3.62
2018-10-02T04:24:12.656Z,2.40
2018-10-02T04:26:48.002Z,3.25
2018-10-02T04:29:23.397Z,3.17
2018-10-02T04:31:58.589Z,2.67
2018-10-02T04:34:34.127Z,3.00
2018-10-02T04:37:09.629Z,3.00
2018-10-02T04:39:45.181Z,2.85
2018-10-02T04:42:20.398Z,3.40
2018-10-02T04:44:55.962Z,2.27
2018-10-02T04:47:31.532Z,3.00
2018-10-02T04:50:07.035Z,2.77
2018-10-02T04:52:42.495Z,2.90
2018-10-02T04:55:18.097Z,2.80
2018-10-02T04:57:53.624Z,2.37
2018-10-02T05:00:29.222Z,3.05
2018-10-02T05:03:04.707Z,2.90
2018-10-02T05:05:40.437Z,2.70
2018-10-02T05:08:15.893Z,2.85
2018-10-02T05:10:51.426Z,2.77
2018-10-02T05:13:26.825Z,2.60
2018-10-02T05:16:02.234Z,2.20
2018-10-02T05:18:37.716Z,2.72
2018-10-02T05:21:13.180Z,2.60
2018-10-02T05:23:48.575Z,3.30
2018-10-02T05:26:25.289Z,2.20
2018-10-02T05:29:00.784Z,3.00
2018-10-02T05:31:36.303Z,3.00
2018-10-02T05:34:11.830Z,2.52
2018-10-02T05:36:47.455Z,2.50
2018-10-02T05:39:22.861Z,2.90
2018-10-02T05:41:58.334Z,2.80
2018-10-02T05:44:33.722Z,2.60
2018-10-02T05:47:09.208Z,2.60
2018-10-02T05:49:44.739Z,2.90
2018-10-02T05:52:20.311Z,2.30
2018-10-02T05:54:55.759Z,2.95
2018-10-02T05:57:31.589Z,2.80
2018-10-02T06:00:07.294Z,3.60
2018-10-02T06:02:42.901Z,2.85
2018-10-02T06:05:18.282Z,2.42
2018-10-02T06:07:53.786Z,2.75
2018-10-02T06:10:29.189Z,2.40
2018-10-02T06:13:04.590Z,2.30
2018-10-02T06:15:40.141Z,9.58
2018-10-02T06:18:15.568Z,3.50
2018-10-02T06:20:51.114Z,2.70
2018-10-02T06:23:26.828Z,2.80
2018-10-02T06:26:02.223Z,2.60
2018-10-02T06:28:37.957Z,2.72
2018-10-02T06:31:13.337Z,2.55
2018-10-02T06:33:48.762Z,3.98
2018-10-02T06:36:24.126Z,3.25
2018-10-02T06:38:59.603Z,2.65
2018-10-02T06:41:35.236Z,3.22
2018-10-02T06:44:10.642Z,3.20
2018-10-02T06:46:46.136Z,3.72
2018-10-02T06:49:21.692Z,2.95
2018-10-02T06:51:57.259Z,2.95
2018-10-02T06:54:32.626Z,2.47
2018-10-02T06:57:08.220Z,3.37
2018-10-02T06:59:43.709Z,3.10
2018-10-02T07:02:19.041Z,3.50
2018-10-02T07:04:54.582Z,3.47
2018-10-02T07:07:29.929Z,4.58
2018-10-02T07:10:06.339Z,3.10
2018-10-02T07:12:41.959Z,3.70
2018-10-02T07:15:17.525Z,3.33
2018-10-02T07:17:52.824Z,3.47
2018-10-02T07:20:28.339Z,2.95
2018-10-02T07:23:03.904Z,2.75
2018-10-02T07:25:39.537Z,2.70
2018-10-02T07:28:15.218Z,2.90
2018-10-02T07:30:50.925Z,3.25
2018-10-02T07:33:26.320Z,2.50
2018-10-02T07:36:01.825Z,2.55
2018-10-02T07:38:37.296Z,2.83
2018-10-02T07:41:12.756Z,2.80
2018-10-02T07:43:48.177Z,3.08
2018-10-02T07:46:23.558Z,2.95
2018-10-02T07:48:59.182Z,3.42
2018-10-02T07:51:34.737Z,3.20
2018-10-02T07:54:10.132Z,2.67
2018-10-02T07:56:45.912Z,2.90
2018-10-02T07:59:21.252Z,2.90
2018-10-02T08:01:56.977Z,3.60
2018-10-02T08:04:32.453Z,2.95
2018-10-02T08:07:07.933Z,3.50
2018-10-02T08:09:43.187Z,3.55
2018-10-02T08:12:18.790Z,3.77
2018-10-02T08:14:54.169Z,3.25
2018-10-02T08:17:29.789Z,2.90
2018-10-02T08:20:05.210Z,2.92
2018-10-02T08:22:40.697Z,3.65
2018-10-02T08:25:16.083Z,3.72
2018-10-02T08:27:51.617Z,4.12
2018-10-02T08:30:26.890Z,4.12
2018-10-02T08:33:02.683Z,4.10
2018-10-02T08:35:38.200Z,4.15
2018-10-02T08:38:13.636Z,4.33
2018-10-02T08:40:49.117Z,4.40
2018-10-02T08:43:24.603Z,4.70
2018-10-02T08:46:06.646Z,5.17
2018-10-02T08:48:42.508Z,5.33
2018-10-02T08:51:18.090Z,5.40
2018-10-02T08:53:53.765Z,5.25
2018-10-02T08:56:29.300Z,5.05
2018-10-02T08:59:04.899Z,5.40
2018-10-02T09:01:40.626Z,6.00
2018-10-02T09:04:16.205Z,6.10
2018-10-02T09:06:51.691Z,5.78
2018-10-02T09:09:27.055Z,6.20
2018-10-02T09:12:02.530Z,8.03
2018-10-02T09:14:38.052Z,5.95
2018-10-02T09:17:13.384Z,6.00
2018-10-02T09:19:48.805Z,5.85
2018-10-02T09:22:24.169Z,5.70
2018-10-02T09:24:59.746Z,6.55
2018-10-02T09:27:35.060Z,6.80
2018-10-02T09:30:15.947Z,6.45
2018-10-02T09:32:56.489Z,7.37
2018-10-02T09:35:37.288Z,6.80
2018-10-02T09:38:18.038Z,8.30
2018-10-02T09:40:58.861Z,7.67
2018-10-02T09:43:45.395Z,6.70
2018-10-02T09:46:21.437Z,6.45
2018-10-02T09:48:56.922Z,6.87
2018-10-02T09:51:32.367Z,7.85
2018-10-02T09:54:07.627Z,8.28
2018-10-02T09:56:44.118Z,8.35
2018-10-02T09:59:19.534Z,7.85
2018-10-02T10:02:00.538Z,8.50
2018-10-02T10:04:35.813Z,8.18
2018-10-02T10:07:11.273Z,8.48
2018-10-02T10:09:46.705Z,7.60
2018-10-02T10:12:22.272Z,7.80
2018-10-02T10:14:57.612Z,7.50
2018-10-02T10:17:33.067Z,8.10
2018-10-02T10:20:08.405Z,7.97
2018-10-02T10:22:44.001Z,7.08
2018-10-02T10:25:19.325Z,6.72
2018-10-02T10:27:54.891Z,7.90
2018-10-02T10:30:30.369Z,7.97
2018-10-02T10:33:05.881Z,7.80
2018-10-02T10:35:41.220Z,7.22
2018-10-02T10:38:16.685Z,7.70
2018-10-02T10:40:52.190Z,8.18
2018-10-02T10:43:27.657Z,7.37
2018-10-02T10:46:03.004Z,7.35
2018-10-02T10:48:38.460Z,8.00
2018-10-02T10:51:14.096Z,7.60
2018-10-02T10:53:49.590Z,7.97
2018-10-02T10:56:25.051Z,8.43
2018-10-02T10:59:00.662Z,6.90
2018-10-02T11:01:36.141Z,7.95
2018-10-02T11:04:11.987Z,7.60
2018-10-02T11:06:47.636Z,7.90
2018-10-02T11:09:23.486Z,7.95
2018-10-02T11:11:58.857Z,8.10
2018-10-02T11:14:34.339Z,8.75
2018-10-02T11:17:09.953Z,8.38
2018-10-02T11:19:45.674Z,8.65
2018-10-02T11:22:21.261Z,7.40
2018-10-02T11:24:56.585Z,6.87
2018-10-02T11:27:32.068Z,9.40
2018-10-02T11:30:08.346Z,8.43
2018-10-02T11:32:44.027Z,8.18
2018-10-02T11:35:19.579Z,8.20
2018-10-02T11:37:55.013Z,8.33
2018-10-02T11:40:30.825Z,7.05
2018-10-02T11:43:06.095Z,7.60
2018-10-02T11:45:41.576Z,8.05
2018-10-02T11:48:16.874Z,7.60
2018-10-02T11:50:52.319Z,7.25
2018-10-02T11:53:27.590Z,7.10
2018-10-02T11:56:03.396Z,7.75
2018-10-02T11:58:38.666Z,7.50
2018-10-02T12:01:14.474Z,7.40
2018-10-02T12:03:49.999Z,7.40
2018-10-02T12:06:25.486Z,7.62
2018-10-02T12:09:00.860Z,7.45
2018-10-02T12:11:36.217Z,7.53
2018-10-02T12:14:11.973Z,7.40
2018-10-02T12:16:47.053Z,6.90
2018-10-02T12:19:22.576Z,6.65
2018-10-02T12:21:58.230Z,6.33
2018-10-02T12:24:33.752Z,6.08
2018-10-02T12:27:09.334Z,6.50
2018-10-02T12:29:44.663Z,5.90
2018-10-02T12:32:20.195Z,5.92
2018-10-02T12:34:55.589Z,6.65
2018-10-02T12:37:30.992Z,5.87
2018-10-02T12:40:06.397Z,5.95
2018-10-02T12:42:41.856Z,6.28
2018-10-02T12:45:17.276Z,6.22
2018-10-02T12:47:52.713Z,5.58
2018-10-02T12:50:27.972Z,6.22
2018-10-02T12:53:03.932Z,6.58
2018-10-02T12:55:39.316Z,6.40
2018-10-02T12:58:14.762Z,6.45
2018-10-02T13:00:50.309Z,7.28
2018-10-02T13:03:25.709Z,6.80
2018-10-02T13:06:01.165Z,7.25
2018-10-02T13:08:36.867Z,7.20
2018-10-02T13:11:12.211Z,7.08
2018-10-02T13:13:47.685Z,6.90
2018-10-02T13:16:23.226Z,7.85
2018-10-02T13:18:58.744Z,8.85
2018-10-02T13:21:34.216Z,8.65
2018-10-02T13:24:09.711Z,8.78
2018-10-02T13:26:45.242Z,8.95
2018-10-02T13:29:20.859Z,10.25
2018-10-02T13:31:56.269Z,9.33
2018-10-02T13:34:31.915Z,10.08
2018-10-02T13:37:07.365Z,10.78
2018-10-02T13:39:42.905Z,9.30
2018-10-02T13:42:18.380Z,9.83
2018-10-02T13:44:54.149Z,10.25
2018-10-02T13:47:29.750Z,11.08
2018-10-02T13:50:05.308Z,10.60
2018-10-02T13:52:40.685Z,11.80
2018-10-02T13:55:16.110Z,11.95
2018-10-02T13:57:51.502Z,11.50
2018-10-02T14:00:27.210Z,12.23
2018-10-02T14:03:03.037Z,12.65
2018-10-02T14:05:45.340Z,11.85
2018-10-02T14:08:20.883Z,10.80
2018-10-02T14:10:56.413Z,12.25
2018-10-02T14:13:31.908Z,11.25
2018-10-02T14:16:07.730Z,11.20
2018-10-02T14:18:43.149Z,11.57
2018-10-02T14:21:18.847Z,7.90
2018-10-02T14:23:54.124Z,7.40
2018-10-02T14:26:29.449Z,7.10
2018-10-02T14:29:04.970Z,7.35
2018-10-02T14:31:40.357Z,6.58
2018-10-02T14:34:15.767Z,5.95
2018-10-02T14:36:51.459Z,5.92
2018-10-02T14:39:26.953Z,6.90
2018-10-02T14:42:02.503Z,6.95
2018-10-02T14:44:37.865Z,6.80
2018-10-02T14:47:14.877Z,7.47
2018-10-02T14:49:50.265Z,6.28
2018-10-02T14:52:25.846Z,6.72
2018-10-02T14:55:01.253Z,5.90
2018-10-02T14:57:36.924Z,5.85
2018-10-02T15:00:12.445Z,5.90
2018-10-02T15:02:48.500Z,5.40
2018-10-02T15:05:23.941Z,5.95
2018-10-02T15:07:59.502Z,6.10
2018-10-02T15:10:34.912Z,5.55
2018-10-02T15:13:10.489Z,6.17
2018-10-02T15:15:46.080Z,5.65
2018-10-02T15:18:21.631Z,4.33
2018-10-02T15:20:57.010Z,4.40
2018-10-02T15:23:32.733Z,4.45
2018-10-02T15:26:08.281Z,4.17
2018-10-02T15:28:43.786Z,4.58
2018-10-02T15:31:19.223Z,4.25
2018-10-02T15:33:55.012Z,4.55
2018-10-02T15:36:30.371Z,4.33
2018-10-02T15:39:08.818Z,4.37
2018-10-02T15:41:44.274Z,4.33
2018-10-02T15:44:19.923Z,4.45
2018-10-02T15:46:55.328Z,4.45
2018-10-02T15:49:30.875Z,4.28
2018-10-02T15:52:06.509Z,5.15
2018-10-02T15:54:42.067Z,3.72
2018-10-02T15:57:17.302Z,4.40
2018-10-02T15:59:52.885Z,5.00
2018-10-02T16:02:28.603Z,4.72
2018-10-02T16:05:04.229Z,5.70
2018-10-02T16:07:39.647Z,4.87
2018-10-02T16:10:15.137Z,4.40
2018-10-02T16:12:50.527Z,4.50
2018-10-02T16:15:25.889Z,5.55
2018-10-02T16:18:01.308Z,5.25
2018-10-02T16:20:36.694Z,5.10
2018-10-02T16:23:12.125Z,4.62
2018-10-02T16:25:47.889Z,5.42
2018-10-02T16:28:23.168Z,5.08
2018-10-02T16:30:58.769Z,4.70
2018-10-02T16:33:34.371Z,5.42
2018-10-02T16:36:09.794Z,4.70
2018-10-02T16:38:45.319Z,4.40
2018-10-02T16:41:20.863Z,5.87
2018-10-02T16:43:56.417Z,5.12
2018-10-02T16:46:31.789Z,5.40
2018-10-02T16:49:07.293Z,5.03
2018-10-02T16:51:42.944Z,3.98
2018-10-02T16:54:18.540Z,4.65
2018-10-02T16:56:53.960Z,3.87
2018-10-02T16:59:29.417Z,4.40
2018-10-02T17:02:05.065Z,4.20
2018-10-02T17:04:40.520Z,4.28
2018-10-02T17:07:16.018Z,4.50
2018-10-02T17:09:51.534Z,4.37
2018-10-02T17:12:27.129Z,4.83
2018-10-02T17:15:02.470Z,4.40
2018-10-02T17:17:37.929Z,4.65
2018-10-02T17:20:13.469Z,5.97
2018-10-02T17:22:49.058Z,4.83
2018-10-02T17:25:24.355Z,5.08
2018-10-02T17:27:59.802Z,4.50
2018-10-02T17:30:35.117Z,4.58
2018-10-02T17:33:10.744Z,3.52
2018-10-02T17:35:46.290Z,5.03
2018-10-02T17:38:22.085Z,3.80
2018-10-02T17:40:57.738Z,4.05
2018-10-02T17:43:33.325Z,4.67
2018-10-02T17:46:08.777Z,4.00
2018-10-02T17:48:44.366Z,3.55
2018-10-02T17:51:19.953Z,4.85
2018-10-02T17:53:55.654Z,3.87
2018-10-02T17:56:31.196Z,3.42
2018-10-02T17:59:06.822Z,4.05
2018-10-02T18:01:42.477Z,3.95
2018-10-02T18:04:18.114Z,5.53
2018-10-02T18:06:54.506Z,3.95
2018-10-02T18:09:29.955Z,4.17
2018-10-02T18:12:05.299Z,3.87
2018-10-02T18:14:40.829Z,3.58
2018-10-02T18:17:16.363Z,3.55
2018-10-02T18:19:52.130Z,3.62
2018-10-02T18:22:27.436Z,4.37
2018-10-02T18:25:03.192Z,3.70
2018-10-02T18:27:38.569Z,3.40
2018-10-02T18:30:14.259Z,4.15
2018-10-02T18:32:49.658Z,4.12
2018-10-02T18:35:25.209Z,4.00
2018-10-02T18:38:00.663Z,4.28
2018-10-02T18:40:36.489Z,3.85
2018-10-02T18:43:12.076Z,2.90
2018-10-02T18:45:47.566Z,4.55
2018-10-02T18:48:23.056Z,4.15
2018-10-02T18:50:58.653Z,3.60
2018-10-02T18:53:34.124Z,4.40
2018-10-02T18:56:09.774Z,3.98
2018-10-02T18:58:46.110Z,4.30
2018-10-02T19:01:22.327Z,4.92
2018-10-02T19:03:57.936Z,4.62
2018-10-02T19:06:33.250Z,4.67
2018-10-02T19:09:12.917Z,5.05
2018-10-02T19:11:53.978Z,3.30
2018-10-02T19:14:29.301Z,3.52
2018-10-02T19:17:04.941Z,3.35
2018-10-02T19:19:45.895Z,3.98
2018-10-02T19:22:21.420Z,4.08
2018-10-02T19:25:01.079Z,3.30
2018-10-02T19:27:36.558Z,3.10
2018-10-02T19:30:17.104Z,4.35
2018-10-02T19:32:52.685Z,3.67
2018-10-02T19:35:28.747Z,3.40
2018-10-02T19:38:09.657Z,3.87
2018-10-02T19:40:45.017Z,2.95
2018-10-02T19:43:20.959Z,4.45
2018-10-02T19:46:01.670Z,3.92
2018-10-02T19:48:37.201Z,3.60
2018-10-02T19:51:17.892Z,3.27
2018-10-02T19:53:53.438Z,3.80
2018-10-02T19:56:28.910Z,3.58
2018-10-02T19:59:04.687Z,4.90
2018-10-02T20:01:40.108Z,3.55
2018-10-02T20:04:15.828Z,3.40
2018-10-02T20:06:51.257Z,3.65
2018-10-02T20:09:26.773Z,4.25
2018-10-02T20:12:02.217Z,4.05
2018-10-02T20:14:37.614Z,4.65
2018-10-02T20:17:12.934Z,4.08
2018-10-02T20:19:48.640Z,4.15
2018-10-02T20:22:24.018Z,4.00
2018-10-02T20:24:59.678Z,5.08
2018-10-02T20:27:34.977Z,3.87
2018-10-02T20:30:10.768Z,4.30
2018-10-02T20:32:46.266Z,4.20
2018-10-02T20:35:21.832Z,4.85
2018-10-02T20:37:57.292Z,4.83
2018-10-02T20:40:33.572Z,4.97
2018-10-02T20:43:08.879Z,4.72
2018-10-02T20:45:45.550Z,4.70
2018-10-02T20:48:20.782Z,4.58
2018-10-02T20:50:56.474Z,3.77
2018-10-02T20:53:32.289Z,3.55
2018-10-02T20:56:07.781Z,3.67
2018-10-02T20:58:43.266Z,4.10
2018-10-02T21:01:18.718Z,4.42
2018-10-02T21:03:54.173Z,4.90
2018-10-02T21:06:29.828Z,5.08
2018-10-02T21:09:06.939Z,4.45
2018-10-02T21:11:42.467Z,10.18
2018-10-02T21:14:18.021Z,4.75
2018-10-02T21:16:53.629Z,4.87
2018-10-02T21:19:28.994Z,5.28
2018-10-02T21:22:04.448Z,4.22
2018-10-02T21:24:39.981Z,4.80
2018-10-02T21:27:15.599Z,3.62
2018-10-02T21:29:50.969Z,3.80
2018-10-02T21:32:26.752Z,3.80
2018-10-02T21:35:02.268Z,3.75
2018-10-02T21:37:38.023Z,4.58
2018-10-02T21:40:13.467Z,3.77
2018-10-02T21:42:48.917Z,3.35
2018-10-02T21:45:30.934Z,4.20
2018-10-02T21:48:06.890Z,3.12
2018-10-02T21:50:42.248Z,3.42
2018-10-02T21:53:17.796Z,3.98
2018-10-02T21:55:53.149Z,3.25
2018-10-02T21:58:28.869Z,4.40
2018-10-02T22:01:04.823Z,3.35
2018-10-02T22:03:41.304Z,3.72
2018-10-02T22:06:16.617Z,3.60
2018-10-02T22:08:52.385Z,5.17
2018-10-02T22:11:27.888Z,4.30
2018-10-02T22:14:03.542Z,4.30
2018-10-02T22:16:38.969Z,3.60
2018-10-02T22:19:14.832Z,3.62
2018-10-02T22:21:50.178Z,4.53
2018-10-02T22:24:25.798Z,3.98
2018-10-02T22:27:01.315Z,3.70
2018-10-02T22:29:36.810Z,4.75
2018-10-02T22:32:12.274Z,4.00
2018-10-02T22:34:48.017Z,4.25
2018-10-02T22:37:23.301Z,3.75
2018-10-02T22:39:58.834Z,3.92
2018-10-02T22:42:34.244Z,3.75
2018-10-02T22:45:09.891Z,3.90
2018-10-02T22:47:45.431Z,3.90
2018-10-02T22:50:21.073Z,3.52
2018-10-02T22:52:56.692Z,4.67
2018-10-02T22:55:32.129Z,3.52
2018-10-02T22:58:07.749Z,3.30
2018-10-02T23:00:43.339Z,4.42
2018-10-02T23:03:20.382Z,3.35
2018-10-02T23:05:56.307Z,3.92
2018-10-02T23:08:31.804Z,3.40
2018-10-02T23:11:07.589Z,3.22
2018-10-02T23:13:42.852Z,3.95
2018-10-02T23:16:18.428Z,4.15
2018-10-02T23:18:53.770Z,3.50
2018-10-02T23:21:29.165Z,3.92
2018-10-02T23:24:04.488Z,3.85
2018-10-02T23:26:40.181Z,3.22
2018-10-02T23:29:15.629Z,2.85
2018-10-02T23:31:51.204Z,3.85
2018-10-02T23:34:26.629Z,4.12
2018-10-02T23:37:02.066Z,3.20
2018-10-02T23:39:37.410Z,3.85
2018-10-02T23:42:12.893Z,4.03
2018-10-02T23:44:48.246Z,3.30
2018-10-02T23:47:23.688Z,3.90
2018-10-02T23:49:58.994Z,3.42
2018-10-02T23:52:34.408Z,3.12
2018-10-02T23:55:09.801Z,3.80
2018-10-02T23:57:45.396Z,3.80
